Portada
METAR-TAF:

METAR-TAF

Aeroports :

Trenton-Mercer Airport

Trenton, Nova Jersey, Estats Units d'Amèrica

latitud: 40-16-35N, longitud: 074-48-59W, altitud: 64 m

Observació

L'informe es va fer fa 51 minuts, a les 05:53 UTC
Vent 5 kt del Nord
Temperatura 2°C
Humitat 75%
Pressió 1028 hPa
Visibilitat: 16.1 km
Cel clar

METAR: KTTN 310553Z AUTO 01005KT 10SM CLR 02/M02 A3035 RMK AO2 SLP271 T00171017 10061 20006 51024

Hora: 02:44 (06:44 UTC)

Pronòstic

L'informe es va fer fa 1 hora i 6 minuts, a les 05:38 UTC
Pronòstic vàlid del 31 a les 06 UTC al 01 a les 06 UTC
Vent 4 kt amb direcció variable
Visibilitat: 10 km
Cel clar
A partir de les 31 a les 1500 UTC
Vent 5 kt del Est
Visibilitat: 10 km
Cel clar
A partir de les 31 a les 2200 UTC
Vent 3 kt amb direcció variable
Visibilitat: 10 km
Escasses núvols a una alçada de 15000 ft

TAF: KTTN 310538Z 3106/0106 VRB04KT P6SM SKC FM311500 10005KT P6SM SKC FM312200 VRB03KT P6SM FEW150

Observacions i pronòstics meteorològics de més de 4000 aeroports (METAR i TAF).

Les estacions disponibles són els punts grocs i vermells al mapa.

Posi el ratolí al punt desitjat per veure el nom de l'estació.

Feu clic per veure les observacions i els pronòstics meteorològics.

Per canviar el mapa: feu clic els botons verds amb una creu de color negre per apropar; al botó verd amb un guió per allunyar la imatge; o en les fletxes verdes per a mapes adjacents.


METAR-TAF: